Argusville, North Dakota
Current Conditions -  °F | °C
As of 3:53 AM on Tuesday 21 Oct 2014 (Local Time) from KFAR Reporting Station
Clear Clear  
Wind Chill: 38°   Ceiling: Unl
Heat Index: 45°   Visibility: 10mi
Dew Point: 38°   Wind: 15mph
Humidity: 76%   Direction: 140°SE
Pressure: 30.05"   Gusts: NA
Location:  47.05°N, 96.93°W
Report Text: KFAR 210853Z 14013KT 10SM CLR 07/03 A3005 RMK AO2 SLP181 T00720033 50003
Loading
Personal Weather Stations






























Interactive Weather Map New forecast layout! Learn more

10-Day Weather Forecast

Advertisements
Track Severe Weather on mobile